Texas General Land Office
 Texas General Land Office
 George P. Bush, Commissioner

 Oil Spill Prevention
 & Response

Texas Automated Buoy System
Real Time Ocean Observations
Supporting Oil Spill Prevention and
Response since 1995
Geochemical and Environmental Research Group

NOAA - NDBC Buoy 42019 -- Texas Automated Buoy System

NBDC Buoy 42019
Freeport, TX
Conditions at 03/21/2019 23:50 UTC (03/21/2019 18:50 CDT)
27° 54.7830'N   95° 21.6000'W
60nm South of Freeport, TX
Anemometer height: 5m
Water Depth: 269 feet (82 meters)
Wind: 4.0 m/s (7.8 kts)
          From 130°T (SE)
Wind Gust: 5.00 m/s (9.7 kts) Pressure: 1020.7 mb (30.14 inHg)
Air Temp: 19°C (67 °F) Dewpoint: 10°C (51°F) Relative Humidity: 56%
Sea Surf Temp: 21 °C (70 °F) Wave Height: 0.5m (1.6 ft) Wave Period: 7
  


IMPORTANT: Notice to Mariners


Today's Velocity Data

  Buoy     Date      Time     East   North   Speed  Dir(°T) Wave Ht WvPer  Num
|  ID  |          |  (UTC) | (m/s) | (m/s) | (m/s) |(FROM) |  (m)  | secs| pts |
+======+==========+========+=======+=======+=======+=======+=======+=====+=====+
  42019 03/18/2019 00:10:00    3.21    3.83    5.00      40     0.0     0     1
  42019 03/18/2019 00:20:00    3.86    4.60    6.00      40     1.1     6     1
  42019 03/18/2019 00:30:00    3.86    4.60    6.00      40     0.0     0     1
  42019 03/18/2019 00:40:00    3.00    5.20    6.00      30     0.0     0     1
  42019 03/18/2019 00:50:00    3.50    6.06    7.00      30     0.0     0     1
  42019 03/18/2019 06:00:00    4.81    4.91    6.88      44     0.2     1    31
  42019 03/18/2019 06:10:00    6.06    3.50    7.00      60     0.0     0     1
  42019 03/18/2019 06:20:00    5.20    3.00    6.00      60     1.2     6     1
  42019 03/18/2019 06:30:00    6.06    3.50    7.00      60     0.0     0     1
  42019 03/18/2019 06:40:00    5.64    2.05    6.00      70     0.0     0     1
  42019 03/18/2019 06:50:00    5.64    2.05    6.00      70     0.0     0     1
  42019 03/18/2019 12:00:00    4.98    3.27    5.96      57     0.2     1    31
  42019 03/18/2019 12:10:00    5.36    4.50    7.00      50     0.0     0     1
  42019 03/18/2019 12:20:00    4.60    3.86    6.00      50     1.2     7     1
  42019 03/18/2019 12:30:00    4.60    3.86    6.00      50     0.0     0     1
  42019 03/18/2019 12:40:00    4.50    5.36    7.00      40     0.0     0     1
  42019 03/18/2019 12:50:00    5.36    4.50    7.00      50     0.0     0     1
  42019 03/18/2019 18:00:00    6.85    4.11    7.99      59     0.2     1    31
  42019 03/18/2019 18:10:00    8.46    3.08    9.00      70     0.0     0     1
  42019 03/18/2019 18:20:00    7.52    2.74    8.00      70     1.3     5     1
  42019 03/18/2019 18:30:00    6.93    4.00    8.00      60     0.0     0     1
  42019 03/18/2019 18:40:00    7.52    2.74    8.00      70     0.0     0     1
  42019 03/18/2019 18:50:00    6.93    4.00    8.00      60     0.0     0     1
  42019 03/19/2019 00:00:00    7.82    3.69    8.64      65     0.3     1    31
  42019 03/19/2019 00:10:00    8.66    5.00   10.00      60     0.0     0     1
  42019 03/19/2019 00:20:00    8.66    5.00   10.00      60     1.8     7     1
  42019 03/19/2019 00:30:00    8.66    5.00   10.00      60     0.0     0     1
  42019 03/19/2019 00:40:00    8.66    5.00   10.00      60     0.0     0     1
  42019 03/19/2019 00:50:00    8.66    5.00   10.00      60     0.0     0     1
  42019 03/19/2019 06:00:00    9.63    3.44   10.22      70     0.5     1    31
  42019 03/19/2019 06:10:00    9.40    3.42   10.00      70     0.0     0     1
  42019 03/19/2019 06:20:00    9.85    1.74   10.00      80     2.2     8     1
  42019 03/19/2019 06:30:00   10.83    1.91   11.00      80     0.0     0     1
  42019 03/19/2019 06:40:00    9.40    3.42   10.00      70     0.0     0     1
  42019 03/19/2019 06:50:00    9.85    1.74   10.00      80     0.0     0     1
  42019 03/19/2019 12:00:00   10.11    1.61   10.24      81     0.6     1    31
  42019 03/19/2019 12:10:00    8.86    1.56    9.00      80     0.0     0     1
  42019 03/19/2019 12:20:00    9.85    1.74   10.00      80     2.6     8     1
  42019 03/19/2019 12:30:00    9.85    1.74   10.00      80     0.0     0     1
  42019 03/19/2019 12:40:00    9.85    1.74   10.00      80     0.0     0     1
  42019 03/19/2019 12:50:00    9.40    3.42   10.00      70     0.0     0     1
  42019 03/19/2019 18:00:00    9.68    2.35    9.96      76     0.5     1    30
  42019 03/19/2019 18:10:00    9.85    1.74   10.00      80     0.0     0     1
  42019 03/19/2019 18:20:00    9.85    1.74   10.00      80     2.3     7     1
  42019 03/19/2019 18:30:00    8.86    1.56    9.00      80     0.0     0     1
  42019 03/19/2019 18:40:00    9.85    1.74   10.00      80     0.0     0     1
  42019 03/19/2019 18:50:00   10.00    0.00   10.00      90     0.0     0     1
  42019 03/20/2019 00:00:00    8.99    0.06    8.99      90     0.4     1    31
  42019 03/20/2019 00:10:00    9.00    0.00    9.00      90     2.3     0     1
  42019 03/20/2019 00:20:00    9.00    0.00    9.00      90     2.3     8     1
  42019 03/20/2019 00:30:00    8.00    0.00    8.00      90     0.0     0     1
  42019 03/20/2019 00:40:00    9.00    0.00    9.00      90     0.0     0     1
  42019 03/20/2019 00:50:00    9.00    0.00    9.00      90     0.0     0     1
  42019 03/20/2019 06:00:00    8.45   -0.97    8.50      96     0.3     1    31
  42019 03/20/2019 06:10:00    7.88   -1.39    8.00     100     0.0     0     1
  42019 03/20/2019 06:20:00    7.88   -1.39    8.00     100     2.0     7     1
  42019 03/20/2019 06:30:00    7.88   -1.39    8.00     100     0.0     0     1
  42019 03/20/2019 06:40:00    7.52   -2.74    8.00     110     0.0     0     1
  42019 03/20/2019 06:50:00    7.52   -2.74    8.00     110     0.0     0     1
  42019 03/20/2019 12:00:00    6.68   -1.22    6.79     100     0.3     1    31
  42019 03/20/2019 12:10:00    5.91   -1.04    6.00     100     0.0     0     1
  42019 03/20/2019 12:20:00    5.91   -1.04    6.00     100     1.6     8     1
  42019 03/20/2019 12:30:00    5.64   -2.05    6.00     110     0.0     0     1
  42019 03/20/2019 12:40:00    5.91   -1.04    6.00     100     0.0     0     1
  42019 03/20/2019 12:50:00    5.91   -1.04    6.00     100     0.0     0     1
  42019 03/20/2019 18:00:00    5.17   -0.44    5.19      95     0.3     1    31
  42019 03/20/2019 18:10:00    4.92    0.87    5.00      80     0.0     0     1
  42019 03/20/2019 18:20:00    4.92    0.87    5.00      80     1.3     8     1
  42019 03/20/2019 18:30:00    5.00    0.00    5.00      90     0.0     0     1
  42019 03/20/2019 18:40:00    4.92    0.87    5.00      80     0.0     0     1
  42019 03/20/2019 18:50:00    4.92    0.87    5.00      80     0.0     0     1
  42019 03/21/2019 00:00:00    3.62    0.95    3.75      75     0.2     1    31
  42019 03/21/2019 00:10:00    2.82    1.03    3.00      70     0.0     0     1
  42019 03/21/2019 00:20:00    2.95    0.52    3.00      80     1.0     7     1
  42019 03/21/2019 00:30:00    2.82    1.03    3.00      70     0.0     0     1
  42019 03/21/2019 00:40:00    2.82    1.03    3.00      70     0.0     0     1
  42019 03/21/2019 00:50:00    2.95    0.52    3.00      80     0.0     0     1
  42019 03/21/2019 06:00:00    2.07   -1.67    2.66     129     0.1     1    31
  42019 03/21/2019 06:10:00    0.35   -1.97    2.00     170     0.0     0     1
  42019 03/21/2019 06:20:00    0.35   -1.97    2.00     170     0.8     8     1
  42019 03/21/2019 06:30:00    0.35   -1.97    2.00     170     0.0     0     1
  42019 03/21/2019 06:40:00    0.00   -2.00    2.00     180     0.0     0     1
  42019 03/21/2019 06:50:00    0.68   -1.88    2.00     160     0.0     0     1
  42019 03/21/2019 12:00:00   -2.00    1.61    2.57     309     0.1     1    31
  42019 03/21/2019 12:10:00   -1.71    4.70    5.00     340     0.0     0     1
  42019 03/21/2019 12:20:00   -2.05    5.64    6.00     340     0.6     7     1
  42019 03/21/2019 12:30:00   -1.04    5.91    6.00     350     0.0     0     1
  42019 03/21/2019 12:40:00   -1.04    5.91    6.00     350     0.0     0     1
  42019 03/21/2019 12:50:00   -1.04    5.91    6.00     350     0.0     0     1
  42019 03/21/2019 18:00:00    1.45    4.88    5.10      17     0.2     1    31
  42019 03/21/2019 18:10:00    3.83    3.21    5.00      50     0.0     0     1
  42019 03/21/2019 18:20:00    3.21    3.83    5.00      40     0.6     8     1
  42019 03/21/2019 18:30:00    3.21    3.83    5.00      40     0.0     0     1
  42019 03/21/2019 18:40:00    3.21    3.83    5.00      40     0.0     0     1
  42019 03/21/2019 18:50:00    3.21    3.83    5.00      40     0.0     0     1